Puerto Banus, Marbella

>

This is an optional block (switch it off / on) in the settings - file ($SITE['banners'] = false;)

You can display ads, any other important text or photo’s using text / html or PHP code.

You can place one or more at the top and or bottom and it can all be different for content / size .



Meteosat more information blitzortung!


Radar lluvias  rain snow radar


Visita nuestra red de sitios de meteo:

Documentation for the template used

MeteoibericaRed estaciones Meteorologicas

MeteoclimaticRed estaciones Meteorologicas



Sin Advertencias climatologicas .En este momento tenemos Nivel Verde.    No hay Alarmas

Pagina Historial Weather Underground texto

Diario Resumen January 3, 2017 Unidades:  impérial    Métrico   Tanto
« Anterior Dia
Siguiente Dia »
Diario Semana Mensual Anual Personalizada
  Maxima: Minima: Media:
Temperatura: 60.6 °F 49.8 °F 54.7 °F
Punto de rocío: 54.5 °F 44.8 °F 48.7 °F
Humedad: 86 % 71 % 80 %
Velocidad del Viento: 12.7 mph 0 mph 7.1 mph
Ráfagas de viento: 12.7 mph - -
Viento:- - West
Pression baro: 30.3 in 30.2 in -
Précipitaciones: 0 in    
Historical Graphs
 
 
Datos de tabla para January 3, 2017
Tiempo Temperatura Punto de rocío Pression baro Viento Velocidad del Viento Ráfagas de viento Humedad Las precipitaciones Rate ( Hora )
00:01 52.2 °F 46.4 °F 30.2 in North 10.4 mph 10.4 mph 81 % 0 in
00:06 52 °F 46.2 °F 30.2 in NNE 12.7 mph 12.7 mph 81 % 0 in
00:11 52 °F 46.2 °F 30.2 in North 11.5 mph 11.5 mph 81 % 0 in
00:16 52 °F 46.2 °F 30.2 in North 12.7 mph 12.7 mph 81 % 0 in
00:21 52 °F 45.9 °F 30.2 in North 11.5 mph 11.5 mph 80 % 0 in
00:26 51.8 °F 46.2 °F 30.2 in North 11.5 mph 11.5 mph 81 % 0 in
00:31 51.6 °F 45.7 °F 30.2 in North 11.5 mph 11.5 mph 80 % 0 in
00:36 51.6 °F 45.7 °F 30.2 in North 11.5 mph 11.5 mph 80 % 0 in
00:41 51.6 °F 46 °F 30.2 in North 9.2 mph 9.2 mph 81 % 0 in
00:46 51.4 °F 45.9 °F 30.2 in NNE 8.1 mph 8.1 mph 81 % 0 in
00:51 51.4 °F 45.9 °F 30.2 in North 11.5 mph 11.5 mph 81 % 0 in
00:56 51.4 °F 45.9 °F 30.2 in North 11.5 mph 11.5 mph 81 % 0 in
01:01 51.4 °F 45.9 °F 30.2 in North 10.4 mph 10.4 mph 81 % 0 in
01:06 51.4 °F 45.9 °F 30.2 in North 9.2 mph 9.2 mph 81 % 0 in
01:11 51.4 °F 45.9 °F 30.2 in North 11.5 mph 11.5 mph 81 % 0 in
01:17 51.4 °F 45.9 °F 30.2 in North 11.5 mph 11.5 mph 81 % 0 in
01:22 51.4 °F 45.9 °F 30.2 in North 11.5 mph 11.5 mph 81 % 0 in
01:27 51.4 °F 45.9 °F 30.2 in North 11.5 mph 11.5 mph 81 % 0 in
01:32 51.4 °F 45.9 °F 30.2 in NNE 10.4 mph 10.4 mph 81 % 0 in
01:37 51.3 °F 45.7 °F 30.2 in NNW 11.5 mph 11.5 mph 81 % 0 in
01:42 51.3 °F 45.7 °F 30.2 in NNW 11.5 mph 11.5 mph 81 % 0 in
01:47 51.3 °F 45.7 °F 30.2 in North 11.5 mph 11.5 mph 81 % 0 in
01:52 51.3 °F 45.7 °F 30.2 in North 11.5 mph 11.5 mph 81 % 0 in
01:57 51.3 °F 45.7 °F 30.2 in NNE 10.4 mph 10.4 mph 81 % 0 in
02:02 51.3 °F 45.7 °F 30.2 in North 9.2 mph 9.2 mph 81 % 0 in
02:07 51.4 °F 45.9 °F 30.2 in NNE 6.9 mph 6.9 mph 81 % 0 in
02:12 51.4 °F 45.9 °F 30.2 in NNW 10.4 mph 10.4 mph 81 % 0 in
02:17 51.6 °F 45.7 °F 30.2 in NNW 9.2 mph 9.2 mph 80 % 0 in
02:27 51.4 °F 45.5 °F 30.2 in North 10.4 mph 10.4 mph 80 % 0 in
02:32 51.4 °F 45.5 °F 30.2 in NNW 8.1 mph 8.1 mph 80 % 0 in
02:37 51.4 °F 45.3 °F 30.2 in NNW 10.4 mph 10.4 mph 80 % 0 in
02:42 51.3 °F 45.1 °F 30.2 in NNE 12 mph 12 mph 80 % 0 in
02:47 51.1 °F 45 °F 30.2 in North 9.2 mph 9.2 mph 80 % 0 in
02:52 50.7 °F 45.1 °F 30.2 in North 9.2 mph 9.2 mph 81 % 0 in
02:57 50.7 °F 45.1 °F 30.2 in NNW 9.2 mph 9.2 mph 81 % 0 in
03:02 50.7 °F 45.1 °F 30.2 in North 11.5 mph 11.5 mph 81 % 0 in
03:07 50.5 °F 45 °F 30.2 in North 11.5 mph 11.5 mph 81 % 0 in
03:12 50.5 °F 45 °F 30.2 in NNW 11.5 mph 11.5 mph 81 % 0 in
03:17 50.5 °F 45 °F 30.2 in North 10.4 mph 10.4 mph 81 % 0 in
03:22 50.4 °F 45.1 °F 30.2 in North 9.2 mph 9.2 mph 82 % 0 in
03:27 50.4 °F 45.1 °F 30.2 in North 10.4 mph 10.4 mph 82 % 0 in
03:32 50.4 °F 45.1 °F 30.2 in NNW 10 mph 10 mph 82 % 0 in
03:37 50.4 °F 45.1 °F 30.2 in North 9.2 mph 9.2 mph 82 % 0 in
03:42 50.4 °F 45 °F 30.2 in North 9.2 mph 9.2 mph 82 % 0 in
03:47 50.4 °F 45 °F 30.2 in North 10.4 mph 10.4 mph 82 % 0 in
03:52 50.2 °F 45 °F 30.2 in North 9.2 mph 9.2 mph 82 % 0 in
03:57 50.2 °F 44.8 °F 30.2 in North 10.4 mph 10.4 mph 82 % 0 in
04:02 50.2 °F 44.8 °F 30.2 in North 8.1 mph 8.1 mph 82 % 0 in
04:07 50.2 °F 44.8 °F 30.2 in NNW 8.1 mph 8.1 mph 82 % 0 in
04:12 50.2 °F 44.8 °F 30.2 in NNW 8.1 mph 8.1 mph 82 % 0 in
04:17 50.2 °F 44.8 °F 30.2 in NNW 10.4 mph 10.4 mph 82 % 0 in
04:22 50 °F 44.8 °F 30.2 in North 8.1 mph 8.1 mph 82 % 0 in
04:27 50 °F 45 °F 30.2 in North 11.5 mph 11.5 mph 83 % 0 in
04:32 50 °F 45 °F 30.2 in North 10.4 mph 10.4 mph 83 % 0 in
04:37 49.8 °F 45 °F 30.2 in North 10.4 mph 10.4 mph 83 % 0 in
04:42 49.8 °F 45 °F 30.2 in North 8.1 mph 8.1 mph 83 % 0 in
04:47 49.8 °F 44.8 °F 30.2 in North 9.2 mph 9.2 mph 83 % 0 in
04:52 49.8 °F 45 °F 30.2 in NNW 10.4 mph 10.4 mph 83 % 0 in
04:57 49.8 °F 45 °F 30.2 in NNW 9.2 mph 9.2 mph 83 % 0 in
05:02 49.8 °F 45 °F 30.2 in North 11.5 mph 11.5 mph 83 % 0 in
05:07 49.8 °F 45 °F 30.2 in North 9.2 mph 9.2 mph 83 % 0 in
05:12 49.8 °F 45 °F 30.2 in North 9.2 mph 9.2 mph 83 % 0 in
05:17 49.8 °F 45 °F 30.2 in NNW 10.4 mph 10.4 mph 83 % 0 in
05:22 49.8 °F 45 °F 30.2 in NNW 6.9 mph 6.9 mph 83 % 0 in
05:27 50 °F 45 °F 30.2 in NNW 9.2 mph 9.2 mph 83 % 0 in
05:32 50 °F 45 °F 30.2 in North 8.1 mph 8.1 mph 83 % 0 in
05:37 50 °F 45 °F 30.2 in North 8.1 mph 8.1 mph 83 % 0 in
05:42 50 °F 45 °F 30.2 in North 9.2 mph 9.2 mph 83 % 0 in
05:47 49.8 °F 45 °F 30.2 in North 9.2 mph 9.2 mph 83 % 0 in
05:52 49.8 °F 45 °F 30.2 in North 9.2 mph 9.2 mph 83 % 0 in
05:57 49.8 °F 45 °F 30.2 in NNW 9.2 mph 9.2 mph 83 % 0 in
06:02 49.8 °F 45 °F 30.2 in North 10.4 mph 10.4 mph 83 % 0 in
06:07 49.8 °F 45 °F 30.2 in North 8.1 mph 8.1 mph 83 % 0 in
06:13 50 °F 45 °F 30.2 in North 9.2 mph 9.2 mph 83 % 0 in
06:17 50 °F 45 °F 30.2 in North 10.4 mph 10.4 mph 83 % 0 in
06:22 50 °F 45 °F 30.2 in North 9.2 mph 9.2 mph 83 % 0 in
06:27 49.8 °F 45 °F 30.2 in North 8.1 mph 8.1 mph 83 % 0 in
06:32 50 °F 45 °F 30.2 in North 8.1 mph 8.1 mph 83 % 0 in
06:38 50 °F 45 °F 30.2 in North 9 mph 9 mph 83 % 0 in
06:43 50 °F 45 °F 30.2 in NNW 8.1 mph 8.1 mph 83 % 0 in
06:48 50 °F 45 °F 30.2 in North 9.2 mph 9.2 mph 83 % 0 in
06:53 50 °F 45 °F 30.2 in NNW 9.2 mph 9.2 mph 83 % 0 in
06:58 50 °F 45 °F 30.2 in North 6.9 mph 6.9 mph 83 % 0 in
07:03 50 °F 45 °F 30.2 in NNW 10.4 mph 10.4 mph 83 % 0 in
07:08 49.8 °F 45 °F 30.2 in North 8.1 mph 8.1 mph 83 % 0 in
07:13 49.8 °F 45 °F 30.2 in North 9.2 mph 9.2 mph 83 % 0 in
07:18 49.8 °F 45 °F 30.2 in North 10.4 mph 10.4 mph 83 % 0 in
07:23 50 °F 45 °F 30.2 in North 8.1 mph 8.1 mph 83 % 0 in
07:28 50 °F 45 °F 30.2 in NNW 8.1 mph 8.1 mph 83 % 0 in
07:33 50 °F 45 °F 30.2 in North 11.5 mph 11.5 mph 83 % 0 in
07:38 50 °F 45.3 °F 30.2 in North 9.2 mph 9.2 mph 84 % 0 in
07:43 50 °F 45.3 °F 30.2 in North 10 mph 10 mph 84 % 0 in
07:48 49.8 °F 45.3 °F 30.2 in North 8.1 mph 8.1 mph 84 % 0 in
07:53 49.8 °F 45.3 °F 30.2 in North 8.1 mph 8.1 mph 84 % 0 in
07:58 50 °F 45.3 °F 30.2 in North 10 mph 10 mph 84 % 0 in
08:03 50 °F 45.3 °F 30.3 in NNW 10.4 mph 10.4 mph 84 % 0 in
08:08 50 °F 45.3 °F 30.3 in North 8.1 mph 8.1 mph 84 % 0 in
08:13 50 °F 45.3 °F 30.3 in North 9.2 mph 9.2 mph 84 % 0 in
08:18 49.8 °F 45.3 °F 30.3 in NNW 9.2 mph 9.2 mph 84 % 0 in
08:23 49.8 °F 45.3 °F 30.3 in NNW 10.4 mph 10.4 mph 84 % 0 in
08:28 49.8 °F 45.3 °F 30.3 in North 10.4 mph 10.4 mph 84 % 0 in
08:33 49.8 °F 45.3 °F 30.3 in NNW 10.4 mph 10.4 mph 84 % 0 in
08:38 49.8 °F 45.3 °F 30.3 in North 10.4 mph 10.4 mph 84 % 0 in
08:43 50 °F 45.3 °F 30.3 in NNW 9.2 mph 9.2 mph 84 % 0 in
08:48 50.2 °F 45.5 °F 30.3 in NNW 9.2 mph 9.2 mph 84 % 0 in
08:53 50.2 °F 45.5 °F 30.3 in North 10.4 mph 10.4 mph 84 % 0 in
08:58 50.2 °F 45.7 °F 30.3 in North 9.2 mph 9.2 mph 84 % 0 in
09:03 50.2 °F 45.7 °F 30.3 in North 10.4 mph 10.4 mph 84 % 0 in
09:08 50.4 °F 45.7 °F 30.3 in North 10.4 mph 10.4 mph 84 % 0 in
09:13 50.4 °F 45.7 °F 30.3 in NNW 10.4 mph 10.4 mph 84 % 0 in
09:18 50.5 °F 45.9 °F 30.3 in North 8.1 mph 8.1 mph 84 % 0 in
09:23 50.5 °F 45.9 °F 30.3 in NNW 8 mph 8 mph 84 % 0 in
09:28 50.7 °F 46 °F 30.3 in North 9.2 mph 9.2 mph 84 % 0 in
09:33 51.1 °F 46 °F 30.3 in NNW 8.1 mph 8.1 mph 83 % 0 in
09:38 51.1 °F 46 °F 30.3 in North 7 mph 7 mph 83 % 0 in
09:43 51.3 °F 46.2 °F 30.3 in NNW 8.1 mph 8.1 mph 83 % 0 in
09:48 51.4 °F 46.4 °F 30.3 in North 8.1 mph 8.1 mph 83 % 0 in
09:53 51.4 °F 46.6 °F 30.3 in North 8.1 mph 8.1 mph 83 % 0 in
09:58 51.8 °F 46.8 °F 30.3 in North 8.1 mph 8.1 mph 83 % 0 in
10:03 52 °F 46.9 °F 30.3 in North 5.8 mph 5.8 mph 83 % 0 in
10:08 52.2 °F 47.1 °F 30.3 in North 9.2 mph 9.2 mph 83 % 0 in
10:13 52.3 °F 47.1 °F 30.3 in North 6 mph 6 mph 82 % 0 in
10:18 52.5 °F 47.1 °F 30.3 in NNW 7 mph 7 mph 82 % 0 in
10:23 52.7 °F 47.5 °F 30.3 in North 8.1 mph 8.1 mph 82 % 0 in
10:28 53.1 °F 47.7 °F 30.3 in NNW 5.8 mph 5.8 mph 82 % 0 in
10:33 53.2 °F 47.8 °F 30.3 in North 8.1 mph 8.1 mph 82 % 0 in
10:38 53.4 °F 47.8 °F 30.3 in North 5.8 mph 5.8 mph 81 % 0 in
10:43 54 °F 48.2 °F 30.3 in North 5 mph 5 mph 81 % 0 in
10:48 54.1 °F 48.6 °F 30.3 in NNW 4.6 mph 4.6 mph 81 % 0 in
10:53 54.7 °F 48.9 °F 30.3 in North 4.6 mph 4.6 mph 81 % 0 in
10:58 55 °F 49.5 °F 30.3 in North 4.6 mph 4.6 mph 81 % 0 in
11:03 55.6 °F 49.5 °F 30.3 in North 3.5 mph 3.5 mph 80 % 0 in
11:08 55.9 °F 49.8 °F 30.3 in North 3.5 mph 3.5 mph 80 % 0 in
11:13 56.7 °F 50.2 °F 30.3 in North 2.3 mph 2.3 mph 79 % 0 in
11:18 57 °F 50.5 °F 30.3 in North 1.2 mph   79 % 0 in
11:23 57.7 °F 51.3 °F 30.3 in Calm     79 % 0 in
11:28 58.5 °F 51.6 °F 30.3 in Calm     78 % 0 in
11:33 58.8 °F 51.6 °F 30.3 in Calm     77 % 0 in
11:38 59.2 °F 51.6 °F 30.3 in WSW 3.5 mph 3.5 mph 76 % 0 in
11:43 59.4 °F 51.8 °F 30.3 in WSW 3.5 mph 3.5 mph 76 % 0 in
11:48 59.5 °F 52 °F 30.3 in WSW 3.5 mph 3.5 mph 76 % 0 in
11:53 59.4 °F 51.4 °F 30.3 in SW 4.6 mph 4.6 mph 75 % 0 in
11:59 59.4 °F 51.4 °F 30.3 in WSW 4.6 mph 4.6 mph 75 % 0 in
12:04 59.2 °F 51.3 °F 30.3 in WSW 4.6 mph 4.6 mph 75 % 0 in
12:09 59.2 °F 51.4 °F 30.3 in WSW 5.8 mph 5.8 mph 76 % 0 in
12:14 59.2 °F 51.4 °F 30.3 in WSW 5 mph 5 mph 76 % 0 in
12:19 59.2 °F 52 °F 30.3 in WSW 5 mph 5 mph 77 % 0 in
12:24 59 °F 51.8 °F 30.3 in SW 7 mph 7 mph 77 % 0 in
12:29 58.8 °F 51.6 °F 30.3 in WSW 5.8 mph 5.8 mph 77 % 0 in
12:34 59 °F 52.2 °F 30.3 in WSW 5 mph 5 mph 78 % 0 in
12:39 58.8 °F 51.6 °F 30.3 in WSW 5.8 mph 5.8 mph 77 % 0 in
12:44 58.8 °F 51.6 °F 30.3 in WSW 5.8 mph 5.8 mph 77 % 0 in
12:49 58.8 °F 51.6 °F 30.3 in WSW 6.9 mph 6.9 mph 77 % 0 in
12:54 59 °F 51.8 °F 30.3 in WSW 5.8 mph 5.8 mph 77 % 0 in
12:59 59 °F 51.8 °F 30.3 in WSW 4.6 mph 4.6 mph 77 % 0 in
13:04 59 °F 51.8 °F 30.3 in WSW 5.8 mph 5.8 mph 77 % 0 in
13:09 59 °F 51.8 °F 30.3 in SW 6 mph 6 mph 77 % 0 in
13:14 58.8 °F 52.2 °F 30.3 in WSW 8.1 mph 8.1 mph 78 % 0 in
13:19 58.8 °F 52.2 °F 30.3 in WSW 6.9 mph 6.9 mph 78 % 0 in
13:24 58.8 °F 52.2 °F 30.3 in WSW 6.9 mph 6.9 mph 78 % 0 in
13:29 58.8 °F 52.3 °F 30.3 in WSW 8.1 mph 8.1 mph 79 % 0 in
13:34 59 °F 52.5 °F 30.3 in WSW 8.1 mph 8.1 mph 79 % 0 in
13:39 59 °F 52.5 °F 30.3 in WSW 9.2 mph 9.2 mph 79 % 0 in
13:44 59 °F 52.5 °F 30.3 in WSW 6.9 mph 6.9 mph 79 % 0 in
13:49 59 °F 52.5 °F 30.3 in West 8.1 mph 8.1 mph 79 % 0 in
13:54 59 °F 52.5 °F 30.3 in WSW 9 mph 9 mph 79 % 0 in
13:59 59.2 °F 52.5 °F 30.3 in WSW 8.1 mph 8.1 mph 79 % 0 in
14:04 59.2 °F 52.7 °F 30.3 in WSW 6.9 mph 6.9 mph 79 % 0 in
14:09 59.4 °F 52.9 °F 30.3 in WSW 8.1 mph 8.1 mph 79 % 0 in
14:14 59.4 °F 52.9 °F 30.3 in West 8.1 mph 8.1 mph 79 % 0 in
14:19 59.4 °F 52.9 °F 30.3 in WSW 8.1 mph 8.1 mph 79 % 0 in
14:24 59.4 °F 52.9 °F 30.3 in WSW 6.9 mph 6.9 mph 79 % 0 in
14:29 59.4 °F 52.9 °F 30.3 in WSW 6.9 mph 6.9 mph 79 % 0 in
14:34 59.4 °F 52.9 °F 30.3 in WSW 10.4 mph 10.4 mph 79 % 0 in
14:39 59.4 °F 52.9 °F 30.3 in WSW 8.1 mph 8.1 mph 79 % 0 in
14:44 59.7 °F 53.4 °F 30.3 in WSW 6.9 mph 6.9 mph 80 % 0 in
14:49 59.9 °F 53.4 °F 30.3 in WSW 8.1 mph 8.1 mph 79 % 0 in
14:54 59.7 °F 53.2 °F 30.3 in WSW 6.9 mph 6.9 mph 79 % 0 in
14:59 59.7 °F 53.2 °F 30.3 in SW 6 mph 6 mph 79 % 0 in
15:04 59.7 °F 53.2 °F 30.3 in SW 6.9 mph 6.9 mph 79 % 0 in
15:09 59.7 °F 53.6 °F 30.3 in WSW 5.8 mph 5.8 mph 80 % 0 in
15:14 59.7 °F 53.6 °F 30.3 in WSW 8.1 mph 8.1 mph 80 % 0 in
15:19 59.7 °F 53.6 °F 30.3 in WSW 6.9 mph 6.9 mph 80 % 0 in
15:24 59.9 °F 53.8 °F 30.3 in WSW 6.9 mph 6.9 mph 80 % 0 in
15:29 60.1 °F 53.8 °F 30.3 in WSW 7 mph 7 mph 80 % 0 in
15:34 60.1 °F 53.8 °F 30.3 in WSW 8.1 mph 8.1 mph 80 % 0 in
15:39 60.1 °F 53.8 °F 30.3 in WSW 5.8 mph 5.8 mph 80 % 0 in
15:44 60.1 °F 53.8 °F 30.3 in WSW 4.6 mph 4.6 mph 80 % 0 in
15:49 60.1 °F 53.8 °F 30.3 in WSW 4.6 mph 4.6 mph 80 % 0 in
15:54 60.1 °F 54 °F 30.3 in WSW 5.8 mph 5.8 mph 80 % 0 in
15:59 60.3 °F 53.8 °F 30.3 in WSW 6 mph 6 mph 79 % 0 in
16:04 60.3 °F 53.8 °F 30.3 in WSW 4 mph 4 mph 79 % 0 in
16:09 60.3 °F 53.8 °F 30.3 in WSW 5.8 mph 5.8 mph 79 % 0 in
16:14 60.4 °F 54 °F 30.3 in WSW 5 mph 5 mph 79 % 0 in
16:19 60.4 °F 54 °F 30.3 in WSW 4.6 mph 4.6 mph 79 % 0 in
16:24 60.4 °F 54 °F 30.3 in WSW 4.6 mph 4.6 mph 79 % 0 in
16:29 60.4 °F 54 °F 30.3 in WSW 5 mph 5 mph 79 % 0 in
16:34 60.4 °F 54 °F 30.3 in WSW 3.5 mph 3.5 mph 79 % 0 in
16:39 60.6 °F 53.8 °F 30.3 in WSW 3.5 mph 3.5 mph 78 % 0 in
16:44 60.6 °F 54 °F 30.3 in WSW 4 mph 4 mph 79 % 0 in
16:49 60.6 °F 54.1 °F 30.3 in WSW 3.5 mph 3.5 mph 79 % 0 in
16:54 60.6 °F 54.1 °F 30.3 in North 4 mph 4 mph 79 % 0 in
16:59 60.6 °F 54.1 °F 30.3 in WSW 3.5 mph 3.5 mph 79 % 0 in
17:04 60.6 °F 54.5 °F 30.3 in WSW 4.6 mph 4.6 mph 80 % 0 in
17:09 60.6 °F 54.5 °F 30.3 in WSW 3.5 mph 3.5 mph 80 % 0 in
17:14 60.6 °F 54.3 °F 30.3 in WSW 4 mph 4 mph 80 % 0 in
17:19 60.4 °F 54.3 °F 30.3 in WSW 4.6 mph 4.6 mph 80 % 0 in
17:24 60.4 °F 54.1 °F 30.3 in WSW 3 mph 3 mph 80 % 0 in
17:29 60.3 °F 54.1 °F 30.3 in WSW 3.5 mph 3.5 mph 80 % 0 in
17:34 60.3 °F 54.3 °F 30.3 in WSW 1 mph 1 mph 81 % 0 in
17:39 60.3 °F 54.3 °F 30.3 in WSW 3.5 mph 3.5 mph 81 % 0 in
17:44 60.1 °F 54.1 °F 30.3 in WSW 3.5 mph 3.5 mph 81 % 0 in
17:49 60.1 °F 54.1 °F 30.3 in WSW 3.5 mph 3.5 mph 81 % 0 in
17:54 60.1 °F 54.1 °F 30.3 in WSW 2.3 mph 2.3 mph 81 % 0 in
18:00 59.9 °F 54.3 °F 30.3 in WSW 3.5 mph 3.5 mph 82 % 0 in
18:05 59.7 °F 54.3 °F 30.3 in WSW 3.5 mph 3.5 mph 82 % 0 in
18:10 59.7 °F 54.3 °F 30.3 in WSW 3.5 mph 3.5 mph 82 % 0 in
18:15 59.7 °F 54.1 °F 30.3 in WSW 2.3 mph 2.3 mph 82 % 0 in
18:20 59.5 °F 54.1 °F 30.3 in Calm     82 % 0 in
18:25 59.5 °F 54.3 °F 30.3 in Calm     83 % 0 in
18:30 59.5 °F 54.3 °F 30.3 in Calm     83 % 0 in
18:35 59.4 °F 54 °F 30.3 in Calm     82 % 0 in
18:40 59.2 °F 53.6 °F 30.3 in WSW 3 mph 3 mph 82 % 0 in
18:45 58.6 °F 53.4 °F 30.3 in NW 3.5 mph 3.5 mph 83 % 0 in
18:50 58.3 °F 53.1 °F 30.3 in NW 2 mph 4 mph 83 % 0 in
18:55 57.9 °F 53.2 °F 30.3 in Calm   3 mph 84 % 0 in
19:00 57.7 °F 53.1 °F 30.3 in Calm     84 % 0 in
19:05 57.7 °F 53.2 °F 30.3 in Calm     85 % 0 in
19:10 57.7 °F 53.2 °F 30.3 in NNW 4 mph 4.5 mph 85 % 0 in
19:15 57.6 °F 53.1 °F 30.3 in NNW 2 mph 5 mph 85 % 0 in
19:20 57.4 °F 52.9 °F 30.3 in North 4.6 mph 4.6 mph 85 % 0 in
19:30 57.2 °F 53.1 °F 30.3 in NNW 3.5 mph   86 % 0 in
19:35 57.2 °F 53.1 °F 30.3 in Calm     86 % 0 in
19:40 57.2 °F 53.1 °F 30.3 in Calm     86 % 0 in
19:45 57 °F 52.5 °F 30.3 in North 3.5 mph 3.5 mph 85 % 0 in
19:50 56.8 °F 52.3 °F 30.3 in North 3.5 mph 3.5 mph 85 % 0 in
19:55 56.8 °F 52.3 °F 30.3 in North 4.6 mph 4.6 mph 85 % 0 in
20:00 56.7 °F 52.2 °F 30.3 in North 3 mph 5 mph 85 % 0 in
20:05 56.7 °F 52.2 °F 30.3 in Calm     85 % 0 in
20:10 56.5 °F 52 °F 30.3 in Calm     85 % 0 in
20:15 56.5 °F 52 °F 30.3 in NNW 4.6 mph 4.6 mph 85 % 0 in
20:20 56.5 °F 51.6 °F 30.3 in Calm   4 mph 84 % 0 in
20:25 56.5 °F 51.6 °F 30.3 in NNW 5 mph 5 mph 84 % 0 in
20:30 56.1 °F 51.1 °F 30.3 in NNW 5 mph 7 mph 83 % 0 in
20:35 56.1 °F 51.1 °F 30.3 in NNW 3 mph 7 mph 83 % 0 in
20:40 56.1 °F 50.7 °F 30.3 in North 6.9 mph 6.9 mph 82 % 0 in
20:45 56.1 °F 50.4 °F 30.3 in North 5 mph 8 mph 81 % 0 in
20:50 56.1 °F 50.4 °F 30.3 in NNW 6.9 mph 6.9 mph 81 % 0 in
20:55 56.1 °F 50 °F 30.3 in NNW 5 mph 6 mph 80 % 0 in
21:00 56.1 °F 50.2 °F 30.3 in NNW 4.6 mph 4.6 mph 80 % 0 in
21:05 56.1 °F 49.8 °F 30.3 in North 6.9 mph 6.9 mph 79 % 0 in
21:10 56.3 °F 49.5 °F 30.3 in North 6.9 mph 6.9 mph 78 % 0 in
21:15 56.1 °F 49.5 °F 30.3 in North 5 mph 6 mph 78 % 0 in
21:16 56.1 °F 49.1 °F 30.3 in North 5.8 mph 5.8 mph 77 % 0 in
21:21 56.1 °F 48.9 °F 30.3 in North 6.9 mph 6.9 mph 77 % 0 in
21:26 55.9 °F 48.9 °F 30.3 in NNW 5.8 mph 5.8 mph 77 % 0 in
21:31 55.9 °F 48.7 °F 30.3 in North 4.6 mph 4.6 mph 77 % 0 in
21:36 55.8 °F 48.7 °F 30.3 in North 6 mph 6 mph 77 % 0 in
21:41 55.8 °F 48.6 °F 30.3 in North 5.8 mph 5.8 mph 77 % 0 in
21:46 55.6 °F 48.6 °F 30.3 in North 5.8 mph 5.8 mph 77 % 0 in
21:51 55.4 °F 48.4 °F 30.3 in North 7 mph 7 mph 77 % 0 in
21:56 55.4 °F 48.4 °F 30.3 in North 6.9 mph 6.9 mph 77 % 0 in
22:01 55.2 °F 47.8 °F 30.3 in North 7 mph 7 mph 76 % 0 in
22:06 55 °F 48 °F 30.3 in North 8.1 mph 8.1 mph 77 % 0 in
22:11 54.9 °F 47.8 °F 30.3 in NNE 8.1 mph 8.1 mph 77 % 0 in
22:16 54.9 °F 47.5 °F 30.3 in North 7 mph 7 mph 76 % 0 in
22:21 54.9 °F 47.5 °F 30.3 in North 6.9 mph 6.9 mph 76 % 0 in
22:26 55 °F 47.7 °F 30.3 in NNW 8.1 mph 8.1 mph 76 % 0 in
22:31 55 °F 47.7 °F 30.3 in North 9.2 mph 9.2 mph 76 % 0 in
22:36 55.2 °F 47.5 °F 30.3 in NNW 8.1 mph 8.1 mph 75 % 0 in
22:41 55.2 °F 47.1 °F 30.3 in North 9 mph 9 mph 74 % 0 in
22:46 55.2 °F 47.1 °F 30.3 in North 8.1 mph 8.1 mph 74 % 0 in
22:51 55.2 °F 47.1 °F 30.3 in North 6.9 mph 6.9 mph 74 % 0 in
22:56 55.2 °F 46.8 °F 30.3 in North 9.2 mph 9.2 mph 73 % 0 in
23:01 55.4 °F 46.9 °F 30.3 in North 9.2 mph 9.2 mph 73 % 0 in
23:06 55.6 °F 46.6 °F 30.3 in NNW 9.2 mph 9.2 mph 72 % 0 in
23:11 55.6 °F 46.6 °F 30.3 in North 8.1 mph 8.1 mph 72 % 0 in
23:16 55.6 °F 46.2 °F 30.3 in North 9.2 mph 9.2 mph 71 % 0 in
23:21 55.6 °F 46.2 °F 30.3 in North 6.9 mph 6.9 mph 71 % 0 in
23:26 55.4 °F 46.2 °F 30.3 in North 8.1 mph 8.1 mph 71 % 0 in
23:31 55.2 °F 46 °F 30.3 in North 9.2 mph 9.2 mph 71 % 0 in
23:36 55.2 °F 46 °F 30.3 in North 6.9 mph 6.9 mph 71 % 0 in
23:41 55 °F 45.9 °F 30.3 in North 9.2 mph 9.2 mph 71 % 0 in
23:47 55.2 °F 46 °F 30.3 in North 9.2 mph 9.2 mph 71 % 0 in
23:52 55 °F 45.9 °F 30.3 in North 8.1 mph 8.1 mph 71 % 0 in
23:57 55.2 °F 46 °F 30.3 in North 8.1 mph 8.1 mph 71 % 0 in
Puerto Banus, Marbella
Elogios de Weather Underground - 1.75 mb

Guión original por  Jim McMurry - jmcmurry@mwt.net Adaptado para la plantilla por  Wim van der Kuil - Leuven-Template.eu

Usted encontrará nuestra información del tiempo también en:

Weather Underground

Iberian Peninsula Weather Network